createdAt,value
2023-02-12T00:01:08.888Z,2.05
2023-02-12T00:03:36.007Z,2.58
2023-02-12T00:06:02.562Z,2.90
2023-02-12T00:08:29.197Z,3.13
2023-02-12T00:10:55.857Z,2.90
2023-02-12T00:13:23.866Z,2.25
2023-02-12T00:15:50.582Z,3.03
2023-02-12T00:18:17.145Z,2.80
2023-02-12T00:20:43.762Z,2.25
2023-02-12T00:23:11.236Z,3.50
2023-02-12T00:25:41.333Z,2.10
2023-02-12T00:28:08.303Z,2.63
2023-02-12T00:30:35.996Z,2.75
2023-02-12T00:33:02.808Z,2.08
2023-02-12T00:35:29.346Z,2.35
2023-02-12T00:37:56.082Z,3.00
2023-02-12T00:40:22.598Z,2.50
2023-02-12T00:42:49.185Z,3.20
2023-02-12T00:45:17.191Z,3.30
2023-02-12T00:47:43.768Z,3.65
2023-02-12T00:50:10.834Z,2.90
2023-02-12T00:52:37.659Z,2.10
2023-02-12T00:55:04.924Z,2.75
2023-02-12T00:57:33.360Z,3.10
2023-02-12T00:59:59.997Z,2.63
2023-02-12T01:02:26.541Z,2.80
2023-02-12T01:04:53.276Z,3.08
2023-02-12T01:07:22.888Z,2.47
2023-02-12T01:09:49.487Z,2.97
2023-02-12T01:12:16.042Z,3.15
2023-02-12T01:14:42.704Z,2.78
2023-02-12T01:17:09.674Z,2.97
2023-02-12T01:19:36.499Z,1.92
2023-02-12T01:22:03.760Z,2.67
2023-02-12T01:24:30.326Z,1.98
2023-02-12T01:26:58.383Z,1.95
2023-02-12T01:29:24.933Z,2.45
2023-02-12T01:31:51.630Z,3.03
2023-02-12T01:34:18.281Z,2.38
2023-02-12T01:36:44.813Z,2.20
2023-02-12T01:39:12.074Z,2.00
2023-02-12T01:41:44.245Z,2.63
2023-02-12T01:44:13.779Z,1.67
2023-02-12T01:46:40.797Z,2.08
2023-02-12T01:49:12.733Z,2.92
2023-02-12T01:51:40.924Z,2.03
2023-02-12T01:54:10.426Z,2.47
2023-02-12T01:56:38.278Z,2.05
2023-02-12T01:59:05.595Z,1.55
2023-02-12T02:01:33.580Z,2.85
2023-02-12T02:04:05.317Z,2.03
2023-02-12T02:06:36.011Z,2.28
2023-02-12T02:09:03.760Z,3.00
2023-02-12T02:11:50.600Z,2.13
2023-02-12T02:14:32.999Z,2.58
2023-02-12T02:17:04.740Z,1.70
2023-02-12T02:19:31.217Z,1.75
2023-02-12T02:22:17.368Z,2.53
2023-02-12T02:25:32.002Z,2.28
2023-02-12T02:28:29.279Z,2.15
2023-02-12T02:31:08.053Z,1.95
2023-02-12T02:33:44.451Z,2.60
2023-02-12T02:36:10.953Z,2.28
2023-02-12T02:38:55.847Z,2.10
2023-02-12T02:41:38.954Z,1.95
2023-02-12T02:44:14.280Z,2.47
2023-02-12T02:46:49.077Z,2.47
2023-02-12T02:49:37.416Z,2.53
2023-02-12T02:52:11.429Z,2.85
2023-02-12T02:54:44.819Z,2.17
2023-02-12T02:57:28.124Z,2.17
2023-02-12T03:00:03.932Z,2.33
2023-02-12T03:02:37.363Z,3.28
2023-02-12T03:05:13.117Z,2.97
2023-02-12T03:07:49.843Z,1.95
2023-02-12T03:10:45.686Z,2.75
2023-02-12T03:13:27.389Z,1.70
2023-02-12T03:16:02.385Z,2.65
2023-02-12T03:18:36.666Z,3.55
2023-02-12T03:21:10.688Z,2.75
2023-02-12T03:23:51.287Z,1.60
2023-02-12T03:26:24.631Z,2.72
2023-02-12T03:28:51.527Z,1.50
2023-02-12T03:31:45.490Z,2.22
2023-02-12T03:34:27.373Z,2.78
2023-02-12T03:37:05.416Z,2.42
2023-02-12T03:39:56.673Z,2.00
2023-02-12T03:42:38.101Z,2.00
2023-02-12T03:45:16.898Z,1.98
2023-02-12T03:48:01.862Z,2.65
2023-02-12T03:50:48.413Z,2.85
2023-02-12T03:53:14.989Z,2.45
2023-02-12T03:55:45.280Z,2.67
2023-02-12T03:58:19.312Z,2.42
2023-02-12T04:00:46.530Z,1.80
2023-02-12T04:03:13.420Z,1.63
2023-02-12T04:05:40.036Z,2.45
2023-02-12T04:08:11.172Z,2.50
2023-02-12T04:11:13.075Z,2.78
2023-02-12T04:13:53.720Z,2.67
2023-02-12T04:16:44.319Z,2.47
2023-02-12T04:19:14.882Z,2.45
2023-02-12T04:21:59.788Z,2.58
2023-02-12T04:24:40.062Z,2.70
2023-02-12T04:27:45.978Z,2.70
2023-02-12T04:30:25.022Z,2.35
2023-02-12T04:33:03.572Z,1.95
2023-02-12T04:35:35.783Z,1.65
2023-02-12T04:38:08.677Z,2.10
2023-02-12T04:40:38.475Z,2.60
2023-02-12T04:43:05.123Z,2.08
2023-02-12T04:45:34.106Z,2.80
2023-02-12T04:48:01.635Z,2.50
2023-02-12T04:50:42.009Z,2.38
2023-02-12T04:53:10.186Z,3.03
2023-02-12T04:55:36.716Z,3.15
2023-02-12T04:58:03.555Z,2.28
2023-02-12T05:00:30.202Z,2.08
2023-02-12T05:02:56.900Z,3.17
2023-02-12T05:05:23.540Z,2.72
2023-02-12T05:07:50.242Z,2.55
2023-02-12T05:10:16.987Z,2.85
2023-02-12T05:12:43.526Z,2.10
2023-02-12T05:15:10.623Z,2.92
2023-02-12T05:17:38.136Z,3.60
2023-02-12T05:20:05.848Z,2.90
2023-02-12T05:22:32.355Z,2.67
2023-02-12T05:24:58.881Z,2.28
2023-02-12T05:27:25.472Z,2.30
2023-02-12T05:29:52.021Z,3.05
2023-02-12T05:32:18.600Z,2.22
2023-02-12T05:34:45.235Z,1.88
2023-02-12T05:37:11.905Z,2.45
2023-02-12T05:39:38.539Z,2.15
2023-02-12T05:42:05.089Z,3.20
2023-02-12T05:44:31.651Z,2.40
2023-02-12T05:46:58.160Z,2.35
2023-02-12T05:49:24.725Z,2.38
2023-02-12T05:51:51.257Z,1.73
2023-02-12T05:54:17.802Z,3.42
2023-02-12T05:56:46.562Z,3.75
2023-02-12T05:59:17.463Z,2.47
2023-02-12T06:01:45.713Z,2.72
2023-02-12T06:04:20.265Z,2.38
2023-02-12T06:06:47.118Z,1.92
2023-02-12T06:09:14.711Z,1.98
2023-02-12T06:11:41.960Z,2.38
2023-02-12T06:14:11.021Z,2.17
2023-02-12T06:16:37.633Z,2.17
2023-02-12T06:19:05.826Z,2.60
2023-02-12T06:21:33.514Z,2.97
2023-02-12T06:24:00.350Z,1.73
2023-02-12T06:26:27.606Z,2.47
2023-02-12T06:28:54.252Z,3.05
2023-02-12T06:31:35.617Z,2.67
2023-02-12T06:34:05.795Z,1.95
2023-02-12T06:36:32.543Z,1.80
2023-02-12T06:39:02.299Z,2.17
2023-02-12T06:41:28.991Z,2.60
2023-02-12T06:43:55.578Z,2.58
2023-02-12T06:46:22.768Z,2.70
2023-02-12T06:48:53.447Z,2.92
2023-02-12T06:51:23.608Z,2.08
2023-02-12T06:53:51.363Z,2.28
2023-02-12T06:56:18.564Z,2.83
2023-02-12T06:58:47.447Z,2.55
2023-02-12T07:01:17.919Z,2.28
2023-02-12T07:03:49.132Z,2.83
2023-02-12T07:06:16.193Z,2.55
2023-02-12T07:08:43.057Z,3.00
2023-02-12T07:11:09.784Z,1.77
2023-02-12T07:13:36.563Z,1.90
2023-02-12T07:16:08.624Z,2.60
2023-02-12T07:18:36.108Z,3.25
2023-02-12T07:21:03.542Z,2.17
2023-02-12T07:23:31.050Z,2.00
2023-02-12T07:26:02.506Z,2.60
2023-02-12T07:28:29.112Z,2.33
2023-02-12T07:30:55.689Z,2.20
2023-02-12T07:33:22.264Z,2.92
2023-02-12T07:35:48.868Z,2.60
2023-02-12T07:38:15.540Z,2.20
2023-02-12T07:40:42.060Z,2.90
2023-02-12T07:43:08.571Z,2.72
2023-02-12T07:45:36.116Z,2.75
2023-02-12T07:48:02.675Z,1.88
2023-02-12T07:50:29.216Z,1.60
2023-02-12T07:52:55.847Z,2.78
2023-02-12T07:55:22.590Z,2.20
2023-02-12T07:57:49.144Z,2.08
2023-02-12T08:00:16.168Z,3.17
2023-02-12T08:02:42.713Z,1.88
2023-02-12T08:05:09.585Z,3.20
2023-02-12T08:07:36.210Z,2.58
2023-02-12T08:10:02.829Z,2.60
2023-02-12T08:12:29.403Z,2.10
2023-02-12T08:14:55.921Z,2.78
2023-02-12T08:17:22.420Z,2.47
2023-02-12T08:19:49.003Z,3.15
2023-02-12T08:22:15.577Z,3.13
2023-02-12T08:24:42.645Z,3.55
2023-02-12T08:27:09.139Z,3.42
2023-02-12T08:29:35.712Z,2.90
2023-02-12T08:32:03.917Z,3.38
2023-02-12T08:34:35.234Z,3.00
2023-02-12T08:37:04.177Z,2.85
2023-02-12T08:39:31.104Z,4.45
2023-02-12T08:41:59.565Z,4.30
2023-02-12T08:44:26.355Z,3.40
2023-02-12T08:46:55.538Z,3.38
2023-02-12T08:49:25.580Z,3.28
2023-02-12T08:51:54.653Z,4.15
2023-02-12T08:54:23.954Z,4.45
2023-02-12T08:56:54.051Z,3.70
2023-02-12T08:59:20.657Z,3.03
2023-02-12T09:01:51.099Z,3.92
2023-02-12T09:04:26.184Z,3.35
2023-02-12T09:06:53.110Z,3.75
2023-02-12T09:09:19.958Z,3.47
2023-02-12T09:11:46.863Z,2.85
2023-02-12T09:14:16.065Z,3.05
2023-02-12T09:16:43.032Z,2.63
2023-02-12T09:19:12.889Z,3.30
2023-02-12T09:21:39.581Z,3.60
2023-02-12T09:24:06.280Z,2.83
2023-02-12T09:26:32.901Z,2.65
2023-02-12T09:29:01.411Z,2.17
2023-02-12T09:31:30.051Z,3.50
2023-02-12T09:34:02.556Z,2.92
2023-02-12T09:36:29.759Z,2.38
2023-02-12T09:38:59.150Z,2.25
2023-02-12T09:42:00.189Z,3.05
2023-02-12T09:44:36.237Z,2.63
2023-02-12T09:47:26.816Z,1.40
2023-02-12T09:50:03.499Z,1.38
2023-02-12T09:52:30.942Z,1.40
2023-02-12T09:54:58.591Z,2.53
2023-02-12T09:57:33.668Z,1.23
2023-02-12T10:00:08.478Z,0.70
2023-02-12T10:02:40.217Z,1.30
2023-02-12T10:05:17.591Z,1.48
2023-02-12T10:07:53.548Z,1.45
2023-02-12T10:10:23.308Z,2.17
2023-02-12T10:12:56.069Z,1.00
2023-02-12T10:15:34.862Z,2.03
2023-02-12T10:18:30.150Z,1.65
2023-02-12T10:21:11.035Z,1.38
2023-02-12T10:24:06.983Z,1.20
2023-02-12T10:26:40.033Z,1.10
2023-02-12T10:29:28.784Z,1.10
2023-02-12T10:31:59.982Z,0.90
2023-02-12T10:34:32.745Z,0.93
2023-02-12T10:37:23.294Z,1.13
2023-02-12T10:39:58.024Z,0.82
2023-02-12T10:42:42.759Z,0.90
2023-02-12T10:45:18.380Z,0.70
2023-02-12T10:47:46.697Z,1.10
2023-02-12T10:50:37.934Z,1.15
2023-02-12T10:53:04.513Z,1.00
2023-02-12T10:55:36.877Z,0.68
2023-02-12T10:58:05.371Z,0.85
2023-02-12T11:00:34.653Z,0.68
2023-02-12T11:03:13.670Z,0.60
2023-02-12T11:05:42.466Z,0.80
2023-02-12T11:08:31.332Z,0.80
2023-02-12T11:11:10.826Z,0.63
2023-02-12T11:13:41.671Z,0.88
2023-02-12T11:16:08.989Z,0.57
2023-02-12T11:18:37.401Z,0.90
2023-02-12T11:21:10.384Z,0.80
2023-02-12T11:23:38.315Z,0.82
2023-02-12T11:26:18.499Z,0.38
2023-02-12T11:29:19.017Z,0.60
2023-02-12T11:32:01.757Z,0.80
2023-02-12T11:34:29.773Z,0.80
2023-02-12T11:36:57.728Z,0.70
2023-02-12T11:39:28.955Z,1.17
2023-02-12T11:42:03.788Z,1.25
2023-02-12T11:44:36.017Z,1.17
2023-02-12T11:47:09.211Z,1.42
2023-02-12T11:49:44.395Z,1.42
2023-02-12T11:52:27.625Z,1.58
2023-02-12T11:54:59.512Z,1.25
2023-02-12T11:57:38.231Z,1.48
2023-02-12T12:00:19.409Z,1.00
2023-02-12T12:03:02.575Z,0.93
2023-02-12T12:05:38.702Z,0.70
2023-02-12T12:08:16.751Z,0.85
2023-02-12T12:10:52.835Z,0.95
2023-02-12T12:13:27.239Z,0.45
2023-02-12T12:16:46.700Z,0.98
2023-02-12T12:19:56.778Z,0.80
2023-02-12T12:22:51.671Z,0.60
2023-02-12T12:25:27.279Z,0.55
2023-02-12T12:28:08.250Z,0.60
2023-02-12T12:30:41.056Z,0.65
2023-02-12T12:33:17.176Z,0.60
2023-02-12T12:36:13.014Z,0.65
2023-02-12T12:38:58.966Z,0.50
2023-02-12T12:42:03.133Z,0.30
2023-02-12T12:45:01.841Z,0.70
2023-02-12T12:47:54.728Z,0.45
2023-02-12T12:50:43.360Z,0.50
2023-02-12T12:53:20.023Z,0.60
2023-02-12T12:56:11.456Z,0.47
2023-02-12T12:58:44.037Z,0.45
2023-02-12T13:01:10.977Z,0.75
2023-02-12T13:03:56.317Z,0.65
2023-02-12T13:06:41.184Z,0.60
2023-02-12T13:09:33.459Z,0.57
2023-02-12T13:12:28.263Z,0.40
2023-02-12T13:14:57.704Z,0.68
2023-02-12T13:17:33.335Z,0.30
2023-02-12T13:20:09.606Z,0.88
2023-02-12T13:22:59.155Z,0.35
2023-02-12T13:25:36.008Z,0.60
2023-02-12T13:28:05.871Z,0.70
2023-02-12T13:30:52.555Z,0.98
2023-02-12T13:33:28.861Z,0.75
2023-02-12T13:36:00.341Z,0.70
2023-02-12T13:38:34.573Z,0.80
2023-02-12T13:41:05.777Z,1.17
2023-02-12T13:43:53.633Z,0.82
2023-02-12T13:47:04.662Z,0.73
2023-02-12T13:49:39.849Z,1.02
2023-02-12T13:52:14.178Z,1.00
2023-02-12T13:54:46.436Z,1.00
2023-02-12T13:57:18.834Z,0.88
2023-02-12T13:59:47.888Z,0.88
2023-02-12T14:02:33.095Z,1.20
2023-02-12T14:05:13.073Z,1.05
2023-02-12T14:07:44.101Z,0.90
2023-02-12T14:10:31.161Z,0.90
2023-02-12T14:13:12.485Z,1.27
2023-02-12T14:15:46.100Z,0.90
2023-02-12T14:18:30.672Z,0.93
2023-02-12T14:21:11.984Z,0.80
2023-02-12T14:23:50.701Z,0.93
2023-02-12T14:26:25.014Z,0.88
2023-02-12T14:29:01.902Z,0.77
2023-02-12T14:31:39.295Z,0.90
2023-02-12T14:34:06.039Z,0.98
2023-02-12T14:36:32.663Z,1.05
2023-02-12T14:39:01.373Z,1.30
2023-02-12T14:41:43.046Z,0.70
2023-02-12T14:44:20.462Z,0.98
2023-02-12T14:46:55.908Z,1.00
2023-02-12T14:49:31.135Z,1.02
2023-02-12T14:51:57.948Z,0.60
2023-02-12T14:54:33.230Z,1.23
2023-02-12T14:57:04.999Z,1.02
2023-02-12T14:59:37.632Z,0.90
2023-02-12T15:02:07.633Z,1.10
2023-02-12T15:04:38.073Z,1.20
2023-02-12T15:07:10.406Z,0.90
2023-02-12T15:09:42.470Z,1.20
2023-02-12T15:12:32.627Z,0.70
2023-02-12T15:15:12.565Z,0.98
2023-02-12T15:17:42.305Z,0.98
2023-02-12T15:20:22.495Z,1.17
2023-02-12T15:22:49.034Z,1.27
2023-02-12T15:25:26.847Z,1.10
2023-02-12T15:28:02.862Z,1.30
2023-02-12T15:30:34.118Z,1.33
2023-02-12T15:33:04.920Z,1.25
2023-02-12T15:35:34.281Z,1.17
2023-02-12T15:38:01.868Z,1.13
2023-02-12T15:40:30.785Z,0.85
2023-02-12T15:42:59.076Z,1.10
2023-02-12T15:45:34.776Z,1.02
2023-02-12T15:48:15.732Z,0.95
2023-02-12T15:51:14.131Z,1.20
2023-02-12T15:53:41.563Z,0.98
2023-02-12T15:56:18.141Z,1.30
2023-02-12T15:58:52.314Z,1.55
2023-02-12T16:01:21.707Z,0.85
2023-02-12T16:03:57.954Z,1.67
2023-02-12T16:06:27.244Z,1.40
2023-02-12T16:09:23.201Z,1.40
2023-02-12T16:11:50.330Z,1.40
2023-02-12T16:14:40.752Z,1.55
2023-02-12T16:17:35.155Z,1.30
2023-02-12T16:20:04.288Z,1.95
2023-02-12T16:22:41.983Z,1.85
2023-02-12T16:25:32.196Z,2.33
2023-02-12T16:28:03.916Z,1.83
2023-02-12T16:30:42.232Z,1.70
2023-02-12T16:33:39.939Z,1.63
2023-02-12T16:36:13.250Z,1.83
2023-02-12T16:38:45.507Z,1.55
2023-02-12T16:41:17.874Z,2.30
2023-02-12T16:43:45.394Z,1.70
2023-02-12T16:46:12.876Z,1.35
2023-02-12T16:48:42.766Z,2.05
2023-02-12T16:51:23.364Z,1.40
2023-02-12T16:53:53.778Z,2.08
2023-02-12T16:56:22.353Z,1.17
2023-02-12T16:58:51.852Z,2.17
2023-02-12T17:01:22.946Z,1.52
2023-02-12T17:03:51.159Z,2.00
2023-02-12T17:06:20.076Z,2.38
2023-02-12T17:08:46.636Z,1.92
2023-02-12T17:11:16.031Z,2.22
2023-02-12T17:13:42.545Z,2.33
2023-02-12T17:16:11.265Z,1.90
2023-02-12T17:18:39.518Z,1.95
2023-02-12T17:21:37.854Z,2.30
2023-02-12T17:24:16.569Z,2.00
2023-02-12T17:26:43.229Z,2.22
2023-02-12T17:29:10.836Z,2.17
2023-02-12T17:31:38.074Z,1.10
2023-02-12T17:34:05.199Z,1.92
2023-02-12T17:36:31.907Z,1.60
2023-02-12T17:38:58.497Z,2.03
2023-02-12T17:41:25.104Z,2.03
2023-02-12T17:43:51.744Z,1.70
2023-02-12T17:46:20.687Z,2.08
2023-02-12T17:48:47.631Z,1.38
2023-02-12T17:51:14.524Z,2.03
2023-02-12T17:53:41.445Z,2.50
2023-02-12T17:56:18.963Z,1.60
2023-02-12T17:58:47.173Z,1.95
2023-02-12T18:01:17.012Z,1.85
2023-02-12T18:03:43.971Z,1.98
2023-02-12T18:06:13.959Z,2.20
2023-02-12T18:08:41.624Z,1.80
2023-02-12T18:11:10.273Z,2.05
2023-02-12T18:13:37.967Z,1.42
2023-02-12T18:16:09.915Z,3.05
2023-02-12T18:18:37.199Z,2.50
2023-02-12T18:21:11.942Z,2.42
2023-02-12T18:23:39.445Z,1.85
2023-02-12T18:26:14.608Z,1.75
2023-02-12T18:28:41.180Z,2.30
2023-02-12T18:31:08.401Z,1.73
2023-02-12T18:33:36.042Z,2.45
2023-02-12T18:36:08.871Z,1.83
2023-02-12T18:38:37.149Z,2.15
2023-02-12T18:41:12.711Z,3.08
2023-02-12T18:43:39.817Z,2.33
2023-02-12T18:46:12.525Z,2.90
2023-02-12T18:48:39.666Z,1.98
2023-02-12T18:51:08.044Z,2.65
2023-02-12T18:53:34.949Z,2.92
2023-02-12T18:56:09.770Z,1.73
2023-02-12T18:58:37.010Z,1.83
2023-02-12T19:01:19.158Z,1.63
2023-02-12T19:03:48.500Z,2.22
2023-02-12T19:06:15.196Z,3.30
2023-02-12T19:08:42.022Z,2.78
2023-02-12T19:11:10.949Z,2.33
2023-02-12T19:13:38.108Z,3.05
2023-02-12T19:16:15.613Z,1.88
2023-02-12T19:18:42.463Z,2.53
2023-02-12T19:21:14.149Z,2.80
2023-02-12T19:23:40.774Z,1.95
2023-02-12T19:26:09.578Z,2.78
2023-02-12T19:28:38.201Z,1.50
2023-02-12T19:31:19.109Z,1.73
2023-02-12T19:33:46.995Z,2.03
2023-02-12T19:36:16.943Z,2.95
2023-02-12T19:38:45.388Z,1.83
2023-02-12T19:41:15.525Z,1.48
2023-02-12T19:43:42.381Z,1.83
2023-02-12T19:46:18.019Z,2.05
2023-02-12T19:48:47.099Z,3.15
2023-02-12T19:51:20.406Z,2.17
2023-02-12T19:53:47.839Z,2.20
2023-02-12T19:56:15.810Z,2.45
2023-02-12T19:58:42.870Z,2.83
2023-02-12T20:01:15.315Z,2.38
2023-02-12T20:03:42.286Z,3.75
2023-02-12T20:06:13.010Z,2.38
2023-02-12T20:08:41.451Z,2.47
2023-02-12T20:11:11.129Z,2.75
2023-02-12T20:13:37.801Z,1.70
2023-02-12T20:16:06.634Z,3.05
2023-02-12T20:18:33.600Z,3.10
2023-02-12T20:21:00.853Z,2.95
2023-02-12T20:23:27.459Z,3.45
2023-02-12T20:25:53.983Z,2.30
2023-02-12T20:28:20.796Z,2.95
2023-02-12T20:30:48.492Z,2.58
2023-02-12T20:33:15.407Z,2.13
2023-02-12T20:35:41.971Z,2.80
2023-02-12T20:38:08.544Z,1.73
2023-02-12T20:40:35.107Z,2.67
2023-02-12T20:43:01.715Z,2.25
2023-02-12T20:45:28.370Z,2.05
2023-02-12T20:47:55.018Z,2.13
2023-02-12T20:50:21.560Z,2.63
2023-02-12T20:52:48.207Z,3.17
2023-02-12T20:55:14.847Z,1.75
2023-02-12T20:57:41.397Z,2.10
2023-02-12T21:00:08.723Z,2.38
2023-02-12T21:02:35.460Z,2.25
2023-02-12T21:05:02.053Z,1.58
2023-02-12T21:07:28.595Z,1.75
2023-02-12T21:09:55.148Z,2.25
2023-02-12T21:12:21.695Z,2.33
2023-02-12T21:14:48.224Z,2.30
2023-02-12T21:17:14.761Z,1.55
2023-02-12T21:19:41.373Z,1.90
2023-02-12T21:22:07.939Z,1.80
2023-02-12T21:24:34.603Z,2.65
2023-02-12T21:27:01.214Z,1.73
2023-02-12T21:29:29.176Z,1.80
2023-02-12T21:31:55.929Z,1.38
2023-02-12T21:34:23.443Z,2.22
2023-02-12T21:36:52.380Z,1.70
2023-02-12T21:39:25.439Z,1.85
2023-02-12T21:41:54.314Z,1.23
2023-02-12T21:44:21.844Z,2.50
2023-02-12T21:46:48.864Z,1.70
2023-02-12T21:49:24.430Z,2.28
2023-02-12T21:51:53.075Z,2.85
2023-02-12T21:54:19.998Z,2.78
2023-02-12T21:56:48.084Z,2.03
2023-02-12T21:59:15.645Z,2.65
2023-02-12T22:01:44.880Z,3.08
2023-02-12T22:04:11.927Z,2.22
2023-02-12T22:06:40.538Z,2.75
2023-02-12T22:09:08.906Z,2.50
2023-02-12T22:11:37.225Z,1.45
2023-02-12T22:14:05.034Z,1.35
2023-02-12T22:16:31.734Z,2.78
2023-02-12T22:19:00.198Z,1.65
2023-02-12T22:21:29.462Z,1.77
2023-02-12T22:23:56.734Z,1.85
2023-02-12T22:26:26.680Z,2.83
2023-02-12T22:29:02.941Z,1.38
2023-02-12T22:31:32.338Z,1.75
2023-02-12T22:34:01.855Z,2.40
2023-02-12T22:36:29.354Z,1.77
2023-02-12T22:38:58.778Z,1.85
2023-02-12T22:41:26.499Z,1.88
2023-02-12T22:43:53.117Z,1.52
2023-02-12T22:46:19.801Z,3.17
2023-02-12T22:48:46.921Z,2.60
2023-02-12T22:51:22.327Z,3.35
2023-02-12T22:53:49.158Z,2.25
2023-02-12T22:56:16.558Z,1.25
2023-02-12T22:58:44.464Z,2.50
2023-02-12T23:01:14.630Z,2.38
2023-02-12T23:03:42.300Z,1.50
2023-02-12T23:06:12.548Z,2.28
2023-02-12T23:08:39.422Z,2.10
2023-02-12T23:11:08.399Z,2.25
2023-02-12T23:13:36.297Z,3.17
2023-02-12T23:16:04.020Z,1.70
2023-02-12T23:18:30.583Z,1.92
2023-02-12T23:20:57.578Z,2.20
2023-02-12T23:23:24.390Z,1.40
2023-02-12T23:25:51.204Z,1.80
2023-02-12T23:28:17.786Z,1.05
2023-02-12T23:30:44.562Z,2.20
2023-02-12T23:33:11.483Z,2.03
2023-02-12T23:35:38.040Z,2.28
2023-02-12T23:38:05.020Z,1.67
2023-02-12T23:40:32.507Z,1.48
2023-02-12T23:42:59.402Z,1.60
2023-02-12T23:45:27.328Z,1.08
2023-02-12T23:47:54.326Z,1.13
2023-02-12T23:50:21.085Z,1.33
2023-02-12T23:52:47.641Z,1.88
2023-02-12T23:55:14.285Z,1.67
2023-02-12T23:57:40.818Z,1.70
